KCUH/CUH METAR and TAF weather

Enter ICAO airport designator
Station Type Date Time Source
KCUH METAR 2018/01/22 11:35 UTC NOAA

KCUH 221135Z AUTO 24012G17KT 10SM CLR 03/M03 A2972 RMK AO2 T00311032


Station Type Date Time Source
KCUH Decoded METAR 2018/01/22 11:35 UTC NOAA

Cushing, Cushing Municipal Airport, OK, United States (KCUH) 35-56-59N 096-46-22W
Jan 22, 2018 - 06:35 AM EST / 2018.01.22 1135 UTC
Wind: from the WSW (240 degrees) at 14 MPH (12 KT) gusting to 20 MPH (17 KT):0
Visibility: 10 mile(s):0
Sky conditions: clear
Temperature: 37.6 F (3.1 C)
Dew Point: 26.2 F (-3.2 C)
Relative Humidity: 63%
Pressure (altimeter): 29.72 in. Hg (1006 hPa)
ob: KCUH 221135Z AUTO 24012G17KT 10SM CLR 03/M03 A2972 RMK AO2 T00311032
cycle: 11

Station Type Date Time Source
KCUH TAF UTC NOAA

Error!


Example: see airport list